Time;durP1;ratioP1;P1;durP2;ratioP2;P2;SDS_P1;SDS_P2;PMS_P1;PMS_P2;Temp;Humidity;BMP_temperature;BMP_pressure;BME280_temperature;BME280_humidity;BME280_pressure;Samples;Min_cycle;Max_cycle;Signal;HPM_P1;HPM_P2
2022/02/22 00:01:52;;;;;;;24.15;4.72;;;6.50;99.90;;;;;;5074454;28;20226;-71
2022/02/22 00:04:21;;;;;;;28.25;6.72;;;6.40;99.90;;;;;;5056948;28;20379;-71
2022/02/22 00:06:49;;;;;;;17.65;6.28;;;6.40;99.90;;;;;;5064695;28;20189;-72
2022/02/22 00:09:17;;;;;;;16.60;4.63;;;6.30;99.90;;;;;;5066811;28;20248;-70
2022/02/22 00:11:44;;;;;;;24.45;5.95;;;6.40;99.90;;;;;;5063687;28;20255;-71
2022/02/22 00:14:12;;;;;;;19.88;5.18;;;6.40;99.90;;;;;;5065998;28;20369;-70
2022/02/22 00:16:39;;;;;;;27.60;6.18;;;6.50;99.90;;;;;;5067306;28;20258;-70
2022/02/22 00:19:08;;;;;;;17.88;6.82;;;6.50;99.90;;;;;;5066932;28;20208;-72
2022/02/22 00:21:35;;;;;;;23.23;6.30;;;6.60;99.90;;;;;;5065933;28;20251;-70
2022/02/22 00:24:02;;;;;;;18.48;3.30;;;6.60;99.90;;;;;;5066513;28;20371;-71
2022/02/22 00:26:33;;;;;;;12.48;3.60;;;6.50;99.90;;;;;;5079790;28;20233;-71
2022/02/22 00:29:00;;;;;;;19.38;3.70;;;6.40;99.90;;;;;;5066815;28;20323;-71
2022/02/22 00:31:27;;;;;;;15.27;3.63;;;6.30;99.90;;;;;;5065809;28;20184;-70
2022/02/22 00:33:53;;;;;;;20.25;4.55;;;6.20;99.90;;;;;;5064128;28;20209;-71
2022/02/22 00:36:23;;;;;;;18.30;4.35;;;6.10;99.90;;;;;;5060950;28;20215;-70
2022/02/22 00:38:50;;;;;;;12.75;3.47;;;6.00;99.90;;;;;;5066331;28;20188;-70
2022/02/22 00:41:17;;;;;;;16.33;5.10;;;6.00;99.90;;;;;;5065556;28;20186;-70
2022/02/22 00:43:46;;;;;;;20.75;4.63;;;6.00;99.90;;;;;;5066363;28;20212;-70
2022/02/22 00:46:13;;;;;;;21.92;4.82;;;6.10;99.90;;;;;;5066446;28;20226;-71
2022/02/22 00:48:40;;;;;;;18.55;5.90;;;6.00;99.90;;;;;;5065792;28;20219;-69
2022/02/22 00:51:12;;;;;;;23.27;6.35;;;6.00;99.90;;;;;;5065994;28;20211;-70
2022/02/22 00:53:38;;;;;;;24.42;5.30;;;6.00;99.90;;;;;;5066289;28;20220;-71
2022/02/22 00:56:07;;;;;;;25.02;5.45;;;6.00;99.90;;;;;;5066335;28;20179;-71
2022/02/22 00:58:33;;;;;;;34.25;8.77;;;6.00;99.90;;;;;;5060240;28;20311;-72
2022/02/22 01:01:02;;;;;;;27.25;6.25;;;6.00;99.90;;;;;;5064890;28;20185;-71
2022/02/22 01:03:31;;;;;;;17.40;6.22;;;6.00;99.90;;;;;;5066227;28;20440;-71
2022/02/22 01:06:00;;;;;;;30.13;6.35;;;6.00;99.90;;;;;;5066082;28;20197;-71
2022/02/22 01:08:29;;;;;;;47.08;7.80;;;6.00;99.90;;;;;;5065623;28;20286;-71
2022/02/22 01:11:04;;;;;;;28.05;8.43;;;6.00;99.90;;;;;;5066451;28;20196;-70
2022/02/22 01:13:31;;;;;;;22.85;4.95;;;6.00;99.90;;;;;;5065835;28;20208;-71
2022/02/22 01:15:58;;;;;;;28.48;7.30;;;6.00;99.90;;;;;;5065922;28;21123;-71
2022/02/22 01:18:26;;;;;;;12.95;4.78;;;6.10;99.90;;;;;;5066320;28;20405;-71
2022/02/22 01:20:53;;;;;;;35.50;7.68;;;6.10;99.90;;;;;;5062133;28;20371;-71
2022/02/22 01:23:20;;;;;;;35.42;6.57;;;6.10;99.90;;;;;;5065047;28;20417;-71
2022/02/22 01:25:50;;;;;;;24.88;7.32;;;6.20;99.90;;;;;;5067117;28;20424;-72
2022/02/22 01:28:20;;;;;;;20.90;5.57;;;6.20;99.90;;;;;;5074988;28;20336;-72
2022/02/22 01:30:46;;;;;;;24.05;5.57;;;6.20;99.90;;;;;;5071363;28;20236;-72
2022/02/22 01:33:13;;;;;;;25.33;6.47;;;6.30;99.90;;;;;;5069401;28;20196;-70
2022/02/22 01:35:42;;;;;;;37.55;7.50;;;6.30;99.90;;;;;;5068855;28;20314;-73
2022/02/22 01:38:09;;;;;;;30.65;6.50;;;6.20;99.90;;;;;;5069299;28;20459;-71
2022/02/22 01:40:38;;;;;;;22.65;5.25;;;6.20;99.90;;;;;;5069148;28;20321;-71
2022/02/22 01:43:07;;;;;;;19.08;4.88;;;6.20;99.90;;;;;;5068944;28;20269;-70
2022/02/22 01:45:34;;;;;;;17.42;4.88;;;6.20;99.90;;;;;;5069344;28;20192;-71
2022/02/22 01:48:02;;;;;;;22.35;6.00;;;6.20;99.90;;;;;;5068991;28;20208;-70
2022/02/22 01:50:29;;;;;;;17.33;6.15;;;6.20;99.90;;;;;;5068577;28;20246;-72
2022/02/22 01:52:57;;;;;;;23.38;5.00;;;6.30;99.90;;;;;;5068696;28;20204;-70
2022/02/22 01:55:24;;;;;;;23.33;5.60;;;6.20;99.90;;;;;;5069522;28;20242;-70
2022/02/22 01:57:53;;;;;;;19.65;4.95;;;6.20;99.90;;;;;;5071727;28;20238;-70
2022/02/22 02:00:20;;;;;;;25.23;6.30;;;6.10;99.90;;;;;;5068859;28;20208;-71
2022/02/22 02:02:49;;;;;;;24.00;5.78;;;6.10;99.90;;;;;;5070049;28;20291;-70
2022/02/22 02:05:16;;;;;;;21.00;4.95;;;6.20;99.90;;;;;;5079056;28;20185;-71
2022/02/22 02:07:43;;;;;;;15.02;4.50;;;6.10;99.90;;;;;;5071982;28;20223;-70
2022/02/22 02:10:12;;;;;;;26.80;6.18;;;6.10;99.90;;;;;;5076589;28;20230;-70
2022/02/22 02:12:39;;;;;;;27.20;7.22;;;6.00;99.90;;;;;;5075258;28;20242;-71
2022/02/22 02:15:08;;;;;;;19.30;5.50;;;6.00;99.90;;;;;;5077052;28;20247;-71
2022/02/22 02:17:35;;;;;;;20.92;5.30;;;5.90;99.90;;;;;;5072906;28;20202;-69
2022/02/22 02:20:06;;;;;;;14.60;5.47;;;5.80;99.90;;;;;;5076346;28;20256;-70
2022/02/22 02:22:37;;;;;;;15.77;5.05;;;5.80;99.90;;;;;;5076615;28;20401;-69
2022/02/22 02:25:05;;;;;;;24.13;6.75;;;5.70;99.90;;;;;;5061174;28;20187;-70
2022/02/22 02:27:35;;;;;;;15.55;5.03;;;5.70;99.90;;;;;;5068363;28;20207;-71
2022/02/22 02:30:02;;;;;;;20.08;5.00;;;5.70;99.90;;;;;;5071224;28;20186;-71
2022/02/22 02:32:32;;;;;;;16.27;4.53;;;5.70;99.90;;;;;;5070515;28;20257;-70
2022/02/22 02:34:59;;;;;;;21.98;5.70;;;5.70;99.90;;;;;;5075418;28;20208;-70
2022/02/22 02:37:26;;;;;;;18.88;4.28;;;5.70;99.90;;;;;;5051659;28;20189;-69
2022/02/22 02:39:55;;;;;;;31.85;5.45;;;5.70;99.90;;;;;;5066590;28;20328;-68
2022/02/22 02:42:22;;;;;;;15.50;5.25;;;5.60;99.90;;;;;;5068166;28;20249;-70
2022/02/22 02:44:57;;;;;;;21.60;4.55;;;5.60;99.90;;;;;;5068197;28;20216;-70
2022/02/22 02:47:24;;;;;;;18.23;5.05;;;5.60;99.90;;;;;;5068579;28;20198;-70
2022/02/22 02:49:53;;;;;;;27.83;6.03;;;5.60;99.90;;;;;;5067322;28;20226;-71
2022/02/22 02:52:20;;;;;;;16.85;5.32;;;5.60;99.90;;;;;;5067716;28;20415;-71
2022/02/22 02:54:47;;;;;;;25.77;5.07;;;5.60;99.90;;;;;;5067668;28;20188;-71
2022/02/22 02:57:15;;;;;;;28.85;5.25;;;5.70;99.90;;;;;;5068178;28;20187;-71
2022/02/22 02:59:49;;;;;;;21.70;5.57;;;5.70;99.90;;;;;;5067348;28;20199;-69
2022/02/22 03:02:17;;;;;;;27.75;10.07;;;5.70;99.90;;;;;;5067731;28;20230;-70
2022/02/22 03:04:44;;;;;;;20.40;4.72;;;5.60;99.90;;;;;;5062566;28;20405;-70
2022/02/22 03:07:11;;;;;;;21.27;5.50;;;5.60;99.90;;;;;;5067853;28;20341;-71
2022/02/22 03:09:40;;;;;;;9.20;3.42;;;5.50;99.90;;;;;;5067173;28;20195;-69
2022/02/22 03:12:07;;;;;;;23.25;6.90;;;5.50;99.90;;;;;;5067553;28;20326;-71
2022/02/22 03:14:36;;;;;;;18.25;5.10;;;5.50;99.90;;;;;;5067579;28;20206;-70
2022/02/22 03:17:03;;;;;;;15.70;5.38;;;5.60;99.90;;;;;;5067498;28;20230;-70
2022/02/22 03:19:32;;;;;;;15.32;4.75;;;5.50;99.90;;;;;;5066888;28;20211;-71
2022/02/22 03:21:59;;;;;;;25.75;6.05;;;5.50;99.90;;;;;;5064263;28;20444;-70
2022/02/22 03:24:26;;;;;;;24.10;4.68;;;5.50;99.90;;;;;;5062229;28;20194;-73
2022/02/22 03:26:53;;;;;;;24.17;6.03;;;5.50;99.90;;;;;;5067864;28;20189;-71
2022/02/22 03:29:20;;;;;;;24.10;7.93;;;5.50;99.90;;;;;;5067604;28;20207;-69
2022/02/22 03:31:48;;;;;;;19.77;5.18;;;5.40;99.90;;;;;;5066875;28;20184;-69
2022/02/22 03:34:15;;;;;;;14.52;5.75;;;5.40;99.90;;;;;;5067522;28;20214;-70
2022/02/22 03:36:43;;;;;;;29.02;8.00;;;5.40;99.90;;;;;;5067404;28;20238;-70
2022/02/22 03:39:10;;;;;;;19.58;4.95;;;5.30;99.90;;;;;;5066864;28;20303;-70
2022/02/22 03:41:39;;;;;;;19.58;6.90;;;5.40;99.90;;;;;;5066687;28;20379;-72
2022/02/22 03:44:07;;;;;;;20.38;6.35;;;5.40;99.90;;;;;;5066779;28;20332;-70
2022/02/22 03:46:33;;;;;;;25.70;6.90;;;5.30;99.90;;;;;;5067382;28;20319;-70
2022/02/22 03:49:02;;;;;;;22.27;5.07;;;5.40;99.90;;;;;;5066512;28;20199;-70
2022/02/22 03:51:29;;;;;;;24.45;5.38;;;5.40;99.90;;;;;;5066482;28;20188;-70
2022/02/22 03:53:56;;;;;;;24.17;5.20;;;5.30;99.90;;;;;;5068528;28;20204;-70
2022/02/22 03:56:23;;;;;;;20.25;5.70;;;5.30;99.90;;;;;;5066994;28;20198;-70
2022/02/22 03:58:49;;;;;;;34.40;6.35;;;5.30;99.90;;;;;;5066968;28;20192;-69
2022/02/22 04:01:16;;;;;;;33.05;6.13;;;5.30;99.90;;;;;;5062782;28;20184;-70
2022/02/22 04:03:43;;;;;;;21.80;6.70;;;5.30;99.90;;;;;;5065919;28;20219;-69
2022/02/22 04:06:11;;;;;;;16.75;5.40;;;5.20;99.90;;;;;;5066966;28;20179;-71
2022/02/22 04:08:38;;;;;;;22.58;6.28;;;5.20;99.90;;;;;;5067757;28;20196;-71
2022/02/22 04:11:05;;;;;;;32.38;7.50;;;5.20;99.90;;;;;;5065358;28;20226;-71
2022/02/22 04:13:32;;;;;;;16.15;4.85;;;5.10;99.90;;;;;;5066381;28;20219;-70
2022/02/22 04:16:04;;;;;;;12.90;4.32;;;5.20;99.90;;;;;;5066977;28;20202;-71
2022/02/22 04:18:33;;;;;;;20.27;5.00;;;5.10;99.90;;;;;;5066728;28;20180;-70
2022/02/22 04:21:00;;;;;;;18.13;5.75;;;5.10;99.90;;;;;;5070934;28;20188;-70
2022/02/22 04:23:36;;;;;;;21.88;5.90;;;5.10;99.90;;;;;;5066414;28;20287;-72
2022/02/22 04:26:05;;;;;;;21.27;4.55;;;5.10;99.90;;;;;;5058348;28;20187;-70
2022/02/22 04:28:35;;;;;;;22.48;4.70;;;5.00;99.90;;;;;;5066320;28;20226;-70
2022/02/22 04:31:01;;;;;;;20.55;5.80;;;5.00;99.90;;;;;;5065886;28;20192;-70
2022/02/22 04:33:28;;;;;;;25.17;5.85;;;5.00;99.90;;;;;;5066565;28;20200;-70
2022/02/22 04:35:55;;;;;;;19.65;4.72;;;5.00;99.90;;;;;;5065810;28;20184;-70
2022/02/22 04:38:22;;;;;;;23.63;5.05;;;5.00;99.90;;;;;;5066334;28;20188;-70
2022/02/22 04:40:51;;;;;;;20.25;4.13;;;5.00;99.90;;;;;;5065799;28;20308;-69
2022/02/22 04:43:18;;;;;;;19.85;6.20;;;4.90;99.90;;;;;;5066245;28;20466;-70
2022/02/22 04:45:44;;;;;;;24.50;6.75;;;4.90;99.90;;;;;;5066194;28;20191;-71
2022/02/22 04:48:11;;;;;;;30.92;5.82;;;5.00;99.90;;;;;;5066203;28;20199;-69
2022/02/22 04:50:38;;;;;;;20.35;4.60;;;5.00;99.90;;;;;;5065680;28;20202;-70
2022/02/22 04:53:08;;;;;;;16.58;4.18;;;5.10;99.90;;;;;;5062375;28;20231;-69
2022/02/22 04:55:35;;;;;;;26.67;6.55;;;4.90;99.90;;;;;;5066127;28;20199;-69
2022/02/22 04:58:03;;;;;;;29.85;5.55;;;4.90;99.90;;;;;;5066624;28;20187;-70
2022/02/22 05:00:32;;;;;;;15.75;5.97;;;5.00;99.90;;;;;;5066199;28;20180;-70
2022/02/22 05:02:59;;;;;;;23.40;5.10;;;4.90;99.90;;;;;;5072981;28;20227;-71
2022/02/22 05:05:27;;;;;;;21.80;5.38;;;4.90;99.90;;;;;;5075359;28;20180;-70
2022/02/22 05:07:54;;;;;;;20.58;5.07;;;4.90;99.90;;;;;;5069914;28;20183;-69
2022/02/22 05:10:21;;;;;;;16.92;4.82;;;4.90;99.90;;;;;;5069265;28;20211;-69
2022/02/22 05:12:48;;;;;;;20.38;4.65;;;4.90;99.90;;;;;;5069812;28;20238;-69
2022/02/22 05:15:16;;;;;;;18.13;6.15;;;4.90;99.90;;;;;;5070069;28;20188;-71
2022/02/22 05:17:45;;;;;;;16.10;5.60;;;4.90;99.90;;;;;;5069764;28;20203;-69
2022/02/22 05:20:16;;;;;;;30.60;6.30;;;4.90;99.90;;;;;;5069063;28;20238;-69
2022/02/22 05:22:46;;;;;;;20.55;4.80;;;4.90;99.90;;;;;;5069139;28;20275;-70
2022/02/22 05:25:14;;;;;;;17.50;4.20;;;4.90;99.90;;;;;;5069835;28;20229;-70
2022/02/22 05:27:42;;;;;;;13.30;5.68;;;4.90;99.90;;;;;;5071211;28;20191;-70
2022/02/22 05:30:11;;;;;;;25.60;6.20;;;4.90;99.90;;;;;;5080659;28;20191;-70
2022/02/22 05:32:40;;;;;;;27.80;8.02;;;4.90;99.90;;;;;;5071227;28;20208;-70
2022/02/22 05:35:08;;;;;;;21.05;5.35;;;4.90;99.90;;;;;;5069283;28;20191;-69
2022/02/22 05:37:35;;;;;;;26.27;6.90;;;4.90;99.90;;;;;;5069542;28;20199;-69
2022/02/22 05:40:03;;;;;;;22.40;5.13;;;5.00;99.90;;;;;;5069091;28;20180;-71
2022/02/22 05:42:33;;;;;;;22.13;5.10;;;4.80;99.90;;;;;;5073125;28;20214;-70
2022/02/22 05:45:03;;;;;;;23.25;6.93;;;4.80;99.90;;;;;;5060524;28;20222;-70
2022/02/22 05:47:32;;;;;;;15.10;4.55;;;4.90;99.90;;;;;;5077262;28;20192;-69
2022/02/22 05:50:03;;;;;;;19.65;5.65;;;4.90;99.90;;;;;;5066699;28;20195;-69
2022/02/22 05:52:31;;;;;;;30.30;7.88;;;5.00;99.90;;;;;;5069333;28;20212;-70
2022/02/22 05:54:58;;;;;;;25.40;6.07;;;5.00;99.90;;;;;;5077435;28;20396;-70
2022/02/22 05:57:30;;;;;;;31.20;5.45;;;5.00;99.90;;;;;;5066513;28;20207;-71
2022/02/22 05:59:59;;;;;;;21.23;6.03;;;5.00;99.90;;;;;;5069039;28;20184;-70
2022/02/22 06:02:26;;;;;;;27.98;5.75;;;5.10;99.90;;;;;;5069495;28;20250;-71
2022/02/22 06:04:53;;;;;;;28.23;6.28;;;5.00;99.90;;;;;;5082422;28;20431;-71
2022/02/22 06:07:24;;;;;;;16.20;5.00;;;5.10;99.90;;;;;;5077424;28;20191;-71
2022/02/22 06:09:53;;;;;;;15.95;5.05;;;5.10;99.90;;;;;;5068263;28;20380;-67
2022/02/22 06:12:27;;;;;;;15.32;6.13;;;5.10;99.90;;;;;;5076889;28;20365;-70
2022/02/22 06:14:54;;;;;;;25.38;5.60;;;5.10;99.90;;;;;;5076992;28;20178;-72
2022/02/22 06:17:24;;;;;;;19.73;5.60;;;5.10;99.90;;;;;;5072301;28;20279;-71
2022/02/22 06:19:53;;;;;;;18.08;6.78;;;5.10;99.90;;;;;;5068406;28;20245;-74
2022/02/22 06:22:21;;;;;;;24.92;6.72;;;5.10;99.90;;;;;;5068746;28;20215;-72
2022/02/22 06:24:48;;;;;;;17.75;7.25;;;5.10;99.90;;;;;;5070794;28;20211;-73
2022/02/22 06:27:19;;;;;;;19.98;3.83;;;5.00;99.90;;;;;;5067944;28;20396;-73
2022/02/22 06:29:46;;;;;;;19.52;4.60;;;5.00;99.90;;;;;;5068248;28;20191;-72
2022/02/22 06:32:13;;;;;;;17.80;5.78;;;5.00;99.90;;;;;;5068428;28;20215;-71
2022/02/22 06:34:42;;;;;;;33.28;5.45;;;5.10;99.90;;;;;;5069076;28;20194;-72
2022/02/22 06:37:09;;;;;;;15.18;5.97;;;5.00;99.90;;;;;;5068103;28;20247;-70
2022/02/22 06:39:38;;;;;;;19.25;4.70;;;5.10;99.90;;;;;;5067591;28;20250;-70
2022/02/22 06:42:06;;;;;;;21.63;5.72;;;5.00;99.90;;;;;;5067975;28;20203;-69
2022/02/22 06:44:35;;;;;;;20.13;4.88;;;5.00;99.90;;;;;;5068329;28;20250;-70
2022/02/22 06:47:04;;;;;;;26.45;7.07;;;5.10;99.90;;;;;;5076302;28;20203;-69
2022/02/22 06:49:31;;;;;;;25.83;7.30;;;5.00;99.90;;;;;;5067281;28;20352;-70
2022/02/22 06:51:58;;;;;;;24.02;6.22;;;5.10;99.90;;;;;;5067707;28;20215;-73
2022/02/22 06:54:27;;;;;;;18.48;5.75;;;5.10;99.90;;;;;;5067640;28;20191;-69
2022/02/22 06:56:56;;;;;;;18.10;6.18;;;5.00;99.90;;;;;;5067971;28;20191;-70
2022/02/22 06:59:24;;;;;;;19.45;6.28;;;5.10;99.90;;;;;;5062727;28;20292;-69
2022/02/22 07:01:51;;;;;;;24.88;5.28;;;5.10;99.90;;;;;;5068842;28;20216;-71
2022/02/22 07:04:18;;;;;;;21.17;6.43;;;5.10;99.90;;;;;;5067341;28;20324;-70
2022/02/22 07:06:45;;;;;;;19.52;6.10;;;5.00;99.90;;;;;;5067303;28;20191;-73
2022/02/22 07:09:12;;;;;;;23.58;5.38;;;5.00;99.90;;;;;;5067624;28;20188;-71
2022/02/22 07:11:41;;;;;;;29.67;7.10;;;5.10;99.90;;;;;;5066605;28;20195;-69
2022/02/22 07:14:09;;;;;;;32.17;7.72;;;5.20;99.90;;;;;;5075327;28;20219;-70
2022/02/22 07:16:38;;;;;;;18.92;5.80;;;5.30;99.90;;;;;;5067313;28;20275;-71
2022/02/22 07:19:07;;;;;;;17.65;5.82;;;5.40;99.90;;;;;;5067068;28;20424;-70
2022/02/22 07:21:34;;;;;;;17.75;6.38;;;5.50;99.90;;;;;;5065738;28;20180;-70
2022/02/22 07:24:02;;;;;;;17.08;6.13;;;5.70;99.90;;;;;;5060234;28;20261;-71
2022/02/22 07:26:30;;;;;;;21.05;5.10;;;6.10;99.90;;;;;;5063205;28;20286;-69
2022/02/22 07:28:57;;;;;;;22.63;5.10;;;6.40;99.90;;;;;;5064233;28;20253;-67
2022/02/22 07:31:30;;;;;;;32.78;6.80;;;7.00;99.90;;;;;;5066122;28;20232;-70
2022/02/22 07:33:59;;;;;;;21.88;5.25;;;7.50;99.90;;;;;;5066490;28;20245;-69
2022/02/22 07:36:27;;;;;;;21.65;6.20;;;8.00;99.90;;;;;;5066882;28;20392;-68
2022/02/22 07:38:59;;;;;;;18.10;7.03;;;8.20;99.90;;;;;;5066948;28;20190;-71
2022/02/22 07:41:26;;;;;;;27.35;6.47;;;8.50;99.90;;;;;;5066305;28;20191;-67
2022/02/22 07:43:54;;;;;;;32.35;6.97;;;8.40;99.90;;;;;;5066276;28;20246;-67
2022/02/22 07:46:21;;;;;;;25.83;6.90;;;8.40;99.90;;;;;;5066658;28;20229;-70
2022/02/22 07:48:51;;;;;;;22.40;5.47;;;8.10;99.90;;;;;;5066886;28;20395;-68
2022/02/22 07:51:20;;;;;;;23.88;6.25;;;8.30;99.90;;;;;;5066160;28;20234;-68
2022/02/22 07:53:50;;;;;;;19.33;6.88;;;8.90;99.90;;;;;;5064605;28;20207;-67
2022/02/22 07:56:18;;;;;;;12.98;5.78;;;9.10;99.90;;;;;;5066659;28;20215;-68
2022/02/22 07:58:45;;;;;;;30.95;6.47;;;9.30;99.90;;;;;;5066141;28;20192;-70
2022/02/22 08:01:12;;;;;;;17.52;7.40;;;9.60;99.90;;;;;;5064799;28;20195;-70
2022/02/22 08:03:44;;;;;;;23.60;7.72;;;9.00;99.90;;;;;;5065514;28;20471;-69
2022/02/22 08:06:12;;;;;;;29.00;6.50;;;8.50;99.90;;;;;;5064528;28;20439;-69
2022/02/22 08:08:41;;;;;;;25.10;7.85;;;8.50;99.90;;;;;;5073374;28;20412;-68
2022/02/22 08:11:08;;;;;;;31.17;6.95;;;7.90;99.90;;;;;;5065903;28;20342;-69
2022/02/22 08:13:35;;;;;;;13.55;4.80;;;8.00;99.90;;;;;;5065899;28;20350;-70
2022/02/22 08:16:02;;;;;;;23.52;5.68;;;8.80;99.90;;;;;;5057169;28;20179;-68
2022/02/22 08:18:29;;;;;;;17.45;5.00;;;9.60;99.90;;;;;;5052754;28;20211;-69
2022/02/22 08:20:59;;;;;;;22.80;5.20;;;10.60;99.90;;;;;;5052594;28;20186;-72
2022/02/22 08:23:30;;;;;;;25.83;5.80;;;10.70;99.90;;;;;;5065917;28;20206;-70
2022/02/22 08:25:59;;;;;;;29.00;5.82;;;11.10;99.90;;;;;;5065713;28;20240;-70
2022/02/22 08:28:26;;;;;;;16.77;5.40;;;11.40;99.90;;;;;;5066322;28;20252;-70
2022/02/22 08:30:55;;;;;;;19.55;4.55;;;11.40;99.90;;;;;;5065455;28;20206;-69
2022/02/22 08:33:22;;;;;;;17.88;6.20;;;12.00;99.90;;;;;;5066046;28;20214;-71
2022/02/22 08:35:50;;;;;;;27.02;4.50;;;12.60;99.90;;;;;;5069080;28;20188;-69
2022/02/22 08:38:17;;;;;;;28.80;6.07;;;12.70;99.90;;;;;;5067228;28;20399;-70
2022/02/22 08:40:45;;;;;;;25.02;5.43;;;12.80;99.90;;;;;;5065844;28;20279;-69
2022/02/22 08:43:16;;;;;;;28.42;7.57;;;12.40;99.90;;;;;;5066879;28;20277;-70
2022/02/22 08:45:48;;;;;;;20.48;4.45;;;12.30;99.90;;;;;;5070189;28;20214;-69
2022/02/22 08:48:16;;;;;;;22.30;4.50;;;11.80;99.90;;;;;;5069734;28;20213;-71
2022/02/22 08:50:43;;;;;;;17.88;6.68;;;12.00;99.90;;;;;;5064492;28;20197;-71
2022/02/22 08:53:14;;;;;;;21.25;5.72;;;12.50;99.90;;;;;;5066638;28;20449;-70
2022/02/22 08:55:43;;;;;;;18.85;5.20;;;12.30;99.90;;;;;;5066791;28;20193;-69
2022/02/22 08:58:14;;;;;;;17.13;5.28;;;11.80;99.90;;;;;;5069123;28;20239;-69
2022/02/22 09:00:42;;;;;;;22.23;5.03;;;11.60;99.90;;;;;;5064528;28;20194;-69
2022/02/22 09:03:09;;;;;;;24.08;6.38;;;12.00;99.90;;;;;;5055670;28;20217;-71
2022/02/22 09:05:39;;;;;;;21.77;5.60;;;12.10;99.90;;;;;;5065708;28;20207;-70
2022/02/22 09:08:06;;;;;;;23.38;5.60;;;12.30;99.90;;;;;;5067084;28;20233;-70
2022/02/22 09:10:34;;;;;;;20.60;5.38;;;12.30;99.90;;;;;;5069020;28;20230;-69
2022/02/22 09:13:04;;;;;;;18.42;4.85;;;12.50;99.90;;;;;;5068625;28;20286;-69
2022/02/22 09:15:31;;;;;;;21.42;5.97;;;12.60;99.90;;;;;;5067321;28;20197;-69
2022/02/22 09:18:02;;;;;;;30.05;5.88;;;11.80;99.90;;;;;;5068959;28;20206;-70
2022/02/22 09:20:30;;;;;;;21.05;5.57;;;11.40;99.90;;;;;;5069034;28;20191;-69
2022/02/22 09:22:58;;;;;;;17.27;5.15;;;11.50;99.90;;;;;;5070459;28;20234;-68
2022/02/22 09:25:32;;;;;;;18.30;5.35;;;12.10;99.90;;;;;;5068815;28;20242;-70
2022/02/22 09:28:00;;;;;;;30.25;6.22;;;12.40;99.90;;;;;;5051136;28;20352;-70
2022/02/22 09:30:31;;;;;;;20.38;5.22;;;12.60;99.90;;;;;;5069726;28;20226;-70
2022/02/22 09:32:59;;;;;;;16.67;6.13;;;12.30;99.90;;;;;;5068181;28;20218;-69
2022/02/22 09:35:29;;;;;;;16.13;6.40;;;12.10;99.90;;;;;;5069441;28;20202;-70
2022/02/22 09:37:59;;;;;;;15.85;5.18;;;12.90;99.90;;;;;;5067717;28;20191;-70
2022/02/22 09:40:28;;;;;;;35.47;6.65;;;12.70;99.90;;;;;;5067301;28;20290;-69
2022/02/22 09:42:57;;;;;;;23.80;6.50;;;12.30;99.90;;;;;;5067990;28;20209;-70
2022/02/22 09:45:27;;;;;;;24.30;5.43;;;11.90;99.90;;;;;;5068416;28;20199;-70
2022/02/22 09:48:01;;;;;;;16.77;5.80;;;12.10;99.90;;;;;;5056589;28;20191;-70
2022/02/22 09:50:32;;;;;;;21.65;5.00;;;11.40;99.90;;;;;;5067671;28;20189;-70
2022/02/22 09:53:06;;;;;;;31.48;8.13;;;10.90;99.90;;;;;;5068701;28;20225;-70
2022/02/22 09:55:33;;;;;;;16.20;4.35;;;10.40;99.90;;;;;;5068641;28;20193;-70
2022/02/22 09:58:00;;;;;;;25.05;5.22;;;10.20;99.90;;;;;;5068832;28;20192;-69
2022/02/22 10:00:32;;;;;;;18.70;5.38;;;10.40;99.90;;;;;;5075134;28;20199;-70
2022/02/22 10:02:59;;;;;;;26.38;5.38;;;10.60;99.90;;;;;;5067212;28;20208;-69
2022/02/22 10:05:30;;;;;;;17.20;5.82;;;10.20;99.90;;;;;;5069067;28;20211;-70
2022/02/22 10:08:02;;;;;;;30.73;6.55;;;10.00;99.90;;;;;;5068512;28;20202;-69
2022/02/22 10:10:34;;;;;;;17.70;5.63;;;10.20;99.90;;;;;;5055607;28;20259;-70
2022/02/22 10:13:01;;;;;;;17.42;5.07;;;10.30;99.90;;;;;;5070264;28;20288;-69
2022/02/22 10:15:28;;;;;;;20.63;4.93;;;9.70;99.90;;;;;;5068441;28;20294;-69
2022/02/22 10:17:56;;;;;;;16.35;5.50;;;9.30;99.90;;;;;;5066340;28;20179;-71
2022/02/22 10:20:23;;;;;;;17.02;5.32;;;9.30;99.90;;;;;;5074834;28;20190;-69
2022/02/22 10:22:53;;;;;;;18.85;5.13;;;9.40;99.90;;;;;;5069633;28;20215;-71
2022/02/22 10:25:21;;;;;;;33.70;5.70;;;9.20;99.90;;;;;;5068661;28;20222;-69
2022/02/22 10:27:50;;;;;;;22.95;4.95;;;8.90;99.90;;;;;;5068072;28;20202;-70
2022/02/22 10:30:38;;;;;;;21.13;5.72;;;8.90;99.90;;;;;;5073472;28;20254;-69
2022/02/22 10:33:16;;;;;;;28.23;6.57;;;9.10;99.90;;;;;;5043145;28;20231;-70
2022/02/22 10:35:46;;;;;;;13.90;4.90;;;9.30;99.90;;;;;;5058047;28;20342;-72
2022/02/22 10:38:18;;;;;;;12.63;5.53;;;9.70;99.90;;;;;;5068146;28;20419;-70
2022/02/22 10:40:53;;;;;;;18.55;6.03;;;9.90;99.90;;;;;;5053955;28;20207;-69
2022/02/22 10:43:21;;;;;;;22.75;8.48;;;9.90;99.90;;;;;;5044773;28;20318;-70
2022/02/22 10:45:50;;;;;;;11.45;4.88;;;9.90;99.90;;;;;;5062943;28;20210;-71
2022/02/22 10:48:27;;;;;;;22.83;6.03;;;9.80;99.90;;;;;;5068087;28;20191;-68
2022/02/22 10:50:56;;;;;;;25.35;5.50;;;9.70;99.90;;;;;;5068507;28;20229;-70
2022/02/22 10:53:29;;;;;;;32.17;5.95;;;9.60;99.90;;;;;;5068560;28;20207;-71
2022/02/22 10:55:57;;;;;;;16.85;4.63;;;9.40;99.90;;;;;;5068347;28;20251;-68
2022/02/22 10:58:25;;;;;;;16.15;3.92;;;9.50;99.90;;;;;;5067284;28;20290;-71
2022/02/22 11:00:52;;;;;;;16.65;4.60;;;9.50;99.90;;;;;;5069128;28;20193;-70
2022/02/22 11:03:19;;;;;;;24.95;5.35;;;9.60;99.90;;;;;;5074497;28;20223;-72
2022/02/22 11:05:48;;;;;;;10.95;3.45;;;9.50;99.90;;;;;;5066290;28;20233;-68
2022/02/22 11:08:23;;;;;;;19.58;3.92;;;9.80;99.90;;;;;;5068124;28;20192;-71
2022/02/22 11:10:56;;;;;;;11.10;4.10;;;9.90;99.90;;;;;;5055753;28;20227;-71
2022/02/22 11:13:27;;;;;;;13.85;4.40;;;9.90;99.90;;;;;;5064470;28;20215;-69
2022/02/22 11:15:55;;;;;;;15.50;3.38;;;9.50;99.90;;;;;;5066360;28;20392;-70
2022/02/22 11:18:24;;;;;;;21.70;4.47;;;9.50;99.90;;;;;;5055722;28;20200;-72
2022/02/22 11:20:53;;;;;;;14.55;3.53;;;9.30;99.90;;;;;;5069248;28;20191;-69
2022/02/22 11:23:28;;;;;;;14.63;4.28;;;9.20;99.90;;;;;;5066605;28;20203;-69
2022/02/22 11:26:12;;;;;;;10.52;5.38;;;9.20;99.90;;;;;;5061858;28;20510;-69
2022/02/22 11:28:41;;;;;;;24.42;3.90;;;9.00;99.90;;;;;;5060789;28;20346;-71
2022/02/22 11:31:11;;;;;;;20.38;6.75;;;9.20;99.90;;;;;;5065547;28;20187;-69
2022/02/22 11:33:44;;;;;;;17.90;4.75;;;9.20;99.90;;;;;;5065958;28;20207;-69
2022/02/22 11:36:11;;;;;;;14.93;6.07;;;9.00;99.90;;;;;;5063681;28;20195;-67
2022/02/22 11:38:43;;;;;;;15.70;5.32;;;9.00;99.90;;;;;;5066636;28;20184;-69
2022/02/22 11:41:17;;;;;;;15.93;5.10;;;8.80;99.90;;;;;;5066343;28;20198;-70
2022/02/22 11:43:59;;;;;;;17.60;4.47;;;8.90;99.90;;;;;;5066883;28;20214;-69
2022/02/22 11:46:52;;;;;;;13.38;4.70;;;8.80;99.90;;;;;;5066199;28;20227;-68
2022/02/22 11:49:25;;;;;;;28.00;4.97;;;8.90;99.90;;;;;;5046459;28;20191;-69
2022/02/22 11:51:56;;;;;;;20.02;4.43;;;9.10;99.90;;;;;;5065596;28;20203;-70
2022/02/22 11:54:25;;;;;;;13.43;4.00;;;9.30;99.90;;;;;;5065818;28;20494;-68
2022/02/22 11:57:05;;;;;;;13.35;3.67;;;9.20;99.90;;;;;;5057742;28;20215;-69
2022/02/22 11:59:45;;;;;;;15.70;3.97;;;9.10;99.90;;;;;;5065290;28;20215;-68
2022/02/22 12:02:12;;;;;;;13.80;3.67;;;8.90;99.90;;;;;;5065453;28;20275;-69
2022/02/22 12:04:44;;;;;;;18.40;5.40;;;9.10;99.90;;;;;;5066716;28;20183;-70
2022/02/22 12:07:11;;;;;;;21.15;4.63;;;9.10;99.90;;;;;;5066407;28;20215;-67
2022/02/22 12:09:40;;;;;;;15.25;3.72;;;9.20;99.90;;;;;;5065110;28;20395;-68
2022/02/22 12:12:11;;;;;;;17.48;6.50;;;9.20;99.90;;;;;;5066384;28;20203;-70
2022/02/22 12:14:39;;;;;;;16.15;4.10;;;9.10;99.90;;;;;;5066216;28;20245;-70
2022/02/22 12:17:10;;;;;;;14.20;3.60;;;9.20;99.90;;;;;;5066652;28;20191;-68
2022/02/22 12:19:41;;;;;;;13.65;3.90;;;9.50;99.90;;;;;;5061292;28;20262;-69
2022/02/22 12:22:09;;;;;;;10.70;3.65;;;9.30;99.90;;;;;;5058466;28;20249;-67
2022/02/22 12:24:36;;;;;;;10.25;3.63;;;9.10;99.90;;;;;;5066253;28;20210;-69
2022/02/22 12:27:15;;;;;;;10.32;4.90;;;9.00;99.90;;;;;;5067631;28;20291;-67
2022/02/22 12:29:42;;;;;;;10.95;3.15;;;9.00;99.90;;;;;;5065629;28;20206;-69
2022/02/22 12:32:10;;;;;;;17.52;4.60;;;9.10;99.90;;;;;;5064979;28;20227;-68
2022/02/22 12:34:36;;;;;;;15.55;4.20;;;9.30;99.90;;;;;;5062988;28;20224;-69
2022/02/22 12:37:05;;;;;;;13.70;4.68;;;9.40;99.90;;;;;;5070551;28;20222;-70
2022/02/22 12:39:34;;;;;;;12.25;4.80;;;9.20;99.90;;;;;;5065440;28;20218;-68
2022/02/22 12:42:02;;;;;;;22.58;4.78;;;9.10;99.90;;;;;;5065852;28;20204;-68
2022/02/22 12:44:31;;;;;;;11.70;4.07;;;9.00;99.90;;;;;;5066268;28;20180;-69
2022/02/22 12:47:00;;;;;;;30.33;6.65;;;8.90;99.90;;;;;;5066120;28;20199;-69
2022/02/22 12:49:28;;;;;;;12.57;5.55;;;8.80;99.90;;;;;;5065998;28;20208;-71
2022/02/22 12:51:59;;;;;;;11.55;4.30;;;9.00;99.90;;;;;;5066688;28;20458;-70
2022/02/22 12:54:27;;;;;;;16.27;6.00;;;8.90;99.90;;;;;;5066640;28;20190;-69